Time;durP1;ratioP1;P1;durP2;ratioP2;P2;SDS_P1;SDS_P2;PMS_P1;PMS_P2;Temp;Humidity;BMP_temperature;BMP_pressure;BME280_temperature;BME280_humidity;BME280_pressure;Samples;Min_cycle;Max_cycle;Signal;HPM_P1;HPM_P2
2022/02/27 00:02:36;;;;;;;8.83;5.83;;;5.40;99.50;;;;;;6073251;23;20449;-85
2022/02/27 00:05:14;;;;;;;9.97;6.70;;;5.40;99.20;;;;;;6083454;23;20417;-84
2022/02/27 00:07:59;;;;;;;11.70;6.50;;;5.40;98.80;;;;;;6099058;23;20445;-84
2022/02/27 00:10:45;;;;;;;11.60;5.60;;;5.30;98.70;;;;;;6074018;23;20491;-86
2022/02/27 00:13:13;;;;;;;12.83;5.40;;;5.20;99.10;;;;;;6071796;23;20924;-85
2022/02/27 00:15:52;;;;;;;10.70;5.97;;;5.30;99.20;;;;;;6096603;23;20412;-85
2022/02/27 00:18:31;;;;;;;15.33;6.30;;;5.20;99.10;;;;;;6095582;23;20423;-85
2022/02/27 00:21:05;;;;;;;10.13;6.40;;;5.30;99.20;;;;;;6072724;23;20406;-86
2022/02/27 00:23:46;;;;;;;14.47;6.27;;;5.30;99.30;;;;;;6099374;23;20441;-85
2022/02/27 00:26:30;;;;;;;11.13;5.37;;;5.20;99.10;;;;;;6097910;23;20440;-87
2022/02/27 00:29:02;;;;;;;10.47;5.90;;;5.20;99.20;;;;;;6097043;23;20541;-86
2022/02/27 00:31:44;;;;;;;12.07;5.77;;;5.20;99.00;;;;;;6097836;23;20408;-85
2022/02/27 00:34:31;;;;;;;9.87;6.40;;;5.30;98.80;;;;;;6099098;23;20409;-85
2022/02/27 00:37:05;;;;;;;7.07;5.43;;;5.10;98.70;;;;;;6077817;23;20420;-87
2022/02/27 00:39:38;;;;;;;8.13;4.63;;;5.20;98.60;;;;;;6099611;23;20431;-87
2022/02/27 00:42:07;;;;;;;6.70;5.30;;;5.10;98.70;;;;;;6106460;23;20451;-86
2022/02/27 00:44:49;;;;;;;10.63;4.93;;;5.00;99.00;;;;;;6102942;23;20415;-85
2022/02/27 00:47:26;;;;;;;7.17;4.27;;;5.00;99.30;;;;;;6099716;23;21366;-83
2022/02/27 00:49:59;;;;;;;7.20;4.93;;;4.90;99.40;;;;;;6101173;23;20447;-85
2022/02/27 00:52:29;;;;;;;9.90;5.03;;;4.80;99.40;;;;;;6109499;23;20420;-86
2022/02/27 00:54:59;;;;;;;10.97;5.37;;;5.10;99.10;;;;;;6120216;23;20420;-86
2022/02/27 00:57:37;;;;;;;6.00;4.60;;;5.00;99.00;;;;;;6110675;23;20464;-86
2022/02/27 01:00:11;;;;;;;9.17;4.90;;;5.20;99.00;;;;;;6112656;23;20448;-83
2022/02/27 01:02:50;;;;;;;8.03;5.10;;;5.30;98.10;;;;;;6109817;23;20439;-86
2022/02/27 01:05:19;;;;;;;11.10;4.90;;;5.20;98.00;;;;;;6110786;23;20495;-84
2022/02/27 01:07:57;;;;;;;8.93;4.90;;;5.00;98.30;;;;;;6102443;23;20451;-84
2022/02/27 01:10:37;;;;;;;7.23;4.33;;;5.00;98.90;;;;;;6101444;23;20548;-86
2022/02/27 01:13:10;;;;;;;10.00;4.80;;;5.00;98.80;;;;;;6100153;23;20443;-86
2022/02/27 01:15:44;;;;;;;7.33;4.40;;;5.10;98.60;;;;;;6101754;23;20400;-87
2022/02/27 01:18:17;;;;;;;9.37;4.13;;;4.90;98.60;;;;;;6108153;23;20495;-86
2022/02/27 01:20:51;;;;;;;9.60;5.00;;;4.90;99.00;;;;;;6111667;23;20401;-85
2022/02/27 01:23:26;;;;;;;6.10;4.17;;;4.90;98.90;;;;;;6113144;23;20441;-86
2022/02/27 01:25:55;;;;;;;7.40;5.40;;;5.00;99.10;;;;;;6107815;23;20424;-85
2022/02/27 01:28:25;;;;;;;9.43;4.23;;;5.10;99.00;;;;;;6133785;23;20444;-85
2022/02/27 01:30:54;;;;;;;6.37;4.40;;;5.00;98.70;;;;;;6114221;23;20405;-85
2022/02/27 01:33:22;;;;;;;9.10;4.30;;;4.90;98.90;;;;;;6109888;23;20437;-85
2022/02/27 01:35:51;;;;;;;6.30;3.77;;;4.90;98.80;;;;;;6118118;23;20460;-88
2022/02/27 01:38:31;;;;;;;10.13;4.80;;;4.90;99.00;;;;;;6122788;23;20397;-89
2022/02/27 01:41:05;;;;;;;8.60;4.67;;;4.90;99.00;;;;;;6118273;23;20397;-88
2022/02/27 01:43:46;;;;;;;11.60;5.30;;;5.00;98.90;;;;;;6115446;23;21143;-85
2022/02/27 01:46:22;;;;;;;8.50;4.60;;;4.90;98.50;;;;;;6106137;23;20492;-84
2022/02/27 01:48:52;;;;;;;5.30;4.17;;;4.70;99.10;;;;;;6099071;23;20523;-85
2022/02/27 01:51:26;;;;;;;7.80;4.30;;;4.70;99.50;;;;;;6126864;23;20431;-85
2022/02/27 01:53:58;;;;;;;4.50;3.83;;;4.80;99.30;;;;;;6102503;23;20488;-85
2022/02/27 01:56:28;;;;;;;10.23;4.63;;;4.90;98.60;;;;;;6102274;23;20422;-84
2022/02/27 01:58:57;;;;;;;7.73;3.73;;;4.90;98.60;;;;;;6103293;23;20435;-85
2022/02/27 02:01:26;;;;;;;10.93;5.23;;;4.80;98.70;;;;;;6104811;23;20413;-83
2022/02/27 02:03:56;;;;;;;10.33;4.30;;;4.70;98.90;;;;;;6106175;23;20439;-85
2022/02/27 02:06:26;;;;;;;6.70;3.37;;;4.70;99.20;;;;;;6105785;23;20409;-89
2022/02/27 02:08:53;;;;;;;9.80;4.33;;;4.70;99.10;;;;;;6102746;23;20475;-83
2022/02/27 02:11:24;;;;;;;10.87;4.53;;;4.90;99.30;;;;;;6099935;23;20413;-86
2022/02/27 02:14:00;;;;;;;7.63;3.93;;;4.80;99.30;;;;;;6099482;23;20503;-86
2022/02/27 02:16:44;;;;;;;7.00;4.20;;;4.60;99.40;;;;;;6094789;23;20452;-86
2022/02/27 02:19:17;;;;;;;5.50;3.60;;;4.50;99.60;;;;;;6098115;23;20421;-86
2022/02/27 02:21:53;;;;;;;7.30;3.97;;;4.50;99.90;;;;;;6100518;23;20448;-87
2022/02/27 02:24:30;;;;;;;7.57;4.37;;;4.60;99.70;;;;;;6099441;23;20447;-84
2022/02/27 02:27:14;;;;;;;7.13;4.67;;;4.60;99.80;;;;;;6098544;23;20408;-88
2022/02/27 02:29:41;;;;;;;7.00;4.33;;;4.60;99.70;;;;;;6122010;23;20432;-85
2022/02/27 02:32:14;;;;;;;5.60;3.50;;;4.60;99.70;;;;;;6100392;23;20432;-84
2022/02/27 02:34:41;;;;;;;9.40;4.50;;;4.80;99.50;;;;;;6099929;23;20411;-86
2022/02/27 02:37:11;;;;;;;12.50;4.10;;;4.90;99.10;;;;;;6101993;23;20444;-86
2022/02/27 02:39:47;;;;;;;9.33;3.30;;;4.80;99.10;;;;;;6102683;23;20409;-86
2022/02/27 02:42:18;;;;;;;7.40;3.80;;;4.60;99.30;;;;;;6103971;23;20448;-84
2022/02/27 02:44:47;;;;;;;5.73;3.23;;;4.60;99.60;;;;;;6104329;23;20442;-85
2022/02/27 02:47:22;;;;;;;4.83;3.00;;;4.60;99.70;;;;;;6103847;23;20507;-85
2022/02/27 02:49:54;;;;;;;7.53;3.87;;;4.60;99.50;;;;;;6103860;23;20421;-83
2022/02/27 02:52:38;;;;;;;8.03;3.77;;;4.60;99.40;;;;;;6125050;23;20447;-84
2022/02/27 02:55:14;;;;;;;9.80;3.53;;;4.50;99.60;;;;;;6107884;23;20404;-85
2022/02/27 02:57:54;;;;;;;5.43;2.80;;;4.80;99.40;;;;;;6102032;23;20896;-84
2022/02/27 03:00:47;;;;;;;7.63;3.60;;;4.90;99.00;;;;;;6095373;23;20431;-84
2022/02/27 03:03:14;;;;;;;9.70;3.70;;;4.90;98.80;;;;;;6095258;23;20451;-86
2022/02/27 03:06:00;;;;;;;8.20;3.17;;;4.80;98.80;;;;;;6096474;23;20412;-84
2022/02/27 03:08:30;;;;;;;6.63;2.80;;;4.70;98.90;;;;;;6104359;23;20478;-84
2022/02/27 03:11:00;;;;;;;10.23;3.20;;;4.70;99.00;;;;;;6106719;23;20441;-87
2022/02/27 03:13:30;;;;;;;9.13;4.97;;;4.60;99.20;;;;;;6110984;23;20463;-85
2022/02/27 03:16:00;;;;;;;8.20;4.67;;;4.60;99.40;;;;;;6117946;23;20417;-88
2022/02/27 03:18:30;;;;;;;9.73;3.97;;;4.60;99.50;;;;;;6119732;23;20432;-87
2022/02/27 03:20:59;;;;;;;8.27;3.77;;;4.60;99.50;;;;;;6112500;23;20494;-86
2022/02/27 03:23:26;;;;;;;6.40;3.50;;;4.50;99.60;;;;;;6110535;23;20444;-85
2022/02/27 03:25:54;;;;;;;6.73;3.60;;;4.60;99.90;;;;;;6107591;23;20476;-85
2022/02/27 03:28:23;;;;;;;5.10;3.93;;;4.40;99.90;;;;;;6103107;23;20803;-87
2022/02/27 03:30:53;;;;;;;7.10;3.30;;;4.60;99.90;;;;;;6108302;23;20436;-85
2022/02/27 03:33:23;;;;;;;7.43;3.80;;;4.60;99.50;;;;;;6101350;23;20432;-85
2022/02/27 03:35:53;;;;;;;6.10;4.17;;;4.60;99.60;;;;;;6099448;23;20420;-85
2022/02/27 03:38:20;;;;;;;4.87;3.10;;;4.50;99.70;;;;;;6120777;23;20421;-85
2022/02/27 03:40:47;;;;;;;9.50;3.93;;;4.60;99.90;;;;;;6099099;23;20660;-84
2022/02/27 03:43:17;;;;;;;6.77;3.67;;;4.60;99.90;;;;;;6123641;23;20491;-84
2022/02/27 03:45:49;;;;;;;5.83;2.97;;;4.50;99.90;;;;;;6099096;23;20428;-85
2022/02/27 03:48:27;;;;;;;8.43;4.27;;;4.50;99.90;;;;;;6099503;23;20443;-83
2022/02/27 03:50:59;;;;;;;9.90;4.70;;;4.40;99.90;;;;;;6101550;23;20408;-82
2022/02/27 03:53:27;;;;;;;8.13;4.33;;;4.20;99.90;;;;;;6100286;23;20448;-86
2022/02/27 03:55:57;;;;;;;8.97;4.43;;;4.20;99.90;;;;;;6103967;23;20401;-83
2022/02/27 03:58:31;;;;;;;6.40;4.50;;;4.30;99.90;;;;;;6093803;23;20416;-81
2022/02/27 04:01:00;;;;;;;10.63;5.40;;;4.20;99.90;;;;;;6092989;23;20412;-81
2022/02/27 04:03:27;;;;;;;10.23;4.37;;;4.30;99.90;;;;;;6116917;23;20441;-82
2022/02/27 04:05:56;;;;;;;6.20;4.30;;;4.10;99.90;;;;;;6095541;23;20423;-83
2022/02/27 04:08:30;;;;;;;10.50;4.57;;;4.10;99.90;;;;;;6115561;23;20460;-82
2022/02/27 04:10:58;;;;;;;7.57;4.70;;;4.10;99.90;;;;;;6117051;23;20444;-81
2022/02/27 04:13:29;;;;;;;4.80;4.07;;;4.10;99.90;;;;;;6098048;23;20487;-82
2022/02/27 04:16:00;;;;;;;10.83;4.80;;;4.10;99.90;;;;;;6119313;23;20408;-82
2022/02/27 04:18:44;;;;;;;13.57;5.27;;;4.00;99.90;;;;;;6094769;23;20424;-82
2022/02/27 04:21:12;;;;;;;6.40;4.13;;;4.00;99.90;;;;;;6094731;23;20414;-82
2022/02/27 04:23:44;;;;;;;10.00;4.67;;;4.10;99.90;;;;;;6093759;23;20511;-81
2022/02/27 04:26:11;;;;;;;8.97;4.40;;;4.10;99.90;;;;;;6092986;23;20412;-83
2022/02/27 04:28:42;;;;;;;4.67;4.17;;;4.30;99.90;;;;;;6092421;23;20987;-81
2022/02/27 04:31:09;;;;;;;10.30;4.93;;;4.20;99.90;;;;;;6094713;23;20490;-83
2022/02/27 04:33:38;;;;;;;6.13;3.93;;;4.00;99.90;;;;;;6095866;23;20507;-82
2022/02/27 04:36:18;;;;;;;7.37;3.80;;;4.00;99.90;;;;;;6095662;23;20393;-84
2022/02/27 04:38:56;;;;;;;9.57;4.47;;;4.20;99.90;;;;;;6096744;23;20463;-83
2022/02/27 04:41:30;;;;;;;4.83;3.40;;;4.20;99.90;;;;;;6097675;23;20416;-83
2022/02/27 04:44:26;;;;;;;5.80;3.70;;;4.10;99.90;;;;;;6101102;23;20498;-84
2022/02/27 04:46:53;;;;;;;7.50;4.30;;;4.30;99.90;;;;;;6075173;23;20420;-81
2022/02/27 04:49:20;;;;;;;6.33;3.53;;;4.30;99.90;;;;;;6098411;23;20442;-82
2022/02/27 04:51:47;;;;;;;6.07;3.67;;;4.10;99.90;;;;;;6103027;23;20413;-82
2022/02/27 04:54:15;;;;;;;6.60;3.57;;;4.10;99.90;;;;;;6102907;23;20464;-83
2022/02/27 04:56:44;;;;;;;7.37;3.40;;;4.00;99.90;;;;;;6101464;23;20407;-82
2022/02/27 04:59:11;;;;;;;6.53;4.40;;;4.10;99.90;;;;;;6095406;23;20419;-82
2022/02/27 05:01:39;;;;;;;4.03;2.93;;;4.10;99.90;;;;;;6085118;23;20500;-82
2022/02/27 05:04:07;;;;;;;6.53;3.17;;;4.20;99.90;;;;;;6098779;23;20417;-82
2022/02/27 05:06:40;;;;;;;5.33;3.30;;;4.10;99.90;;;;;;6078938;23;20982;-83
2022/02/27 05:09:17;;;;;;;6.97;3.20;;;4.10;99.90;;;;;;6098946;23;20444;-82
2022/02/27 05:11:48;;;;;;;5.13;3.20;;;4.00;99.90;;;;;;6072429;23;20427;-83
2022/02/27 05:14:15;;;;;;;8.30;3.40;;;4.10;99.90;;;;;;6097802;23;20416;-83
2022/02/27 05:16:42;;;;;;;5.97;3.40;;;4.10;99.90;;;;;;6096104;23;20440;-82
2022/02/27 05:19:09;;;;;;;5.23;3.13;;;4.20;99.90;;;;;;6069440;23;20515;-83
2022/02/27 05:21:37;;;;;;;5.60;3.27;;;4.00;99.90;;;;;;6074434;23;20409;-81
2022/02/27 05:24:05;;;;;;;7.10;3.30;;;3.90;99.90;;;;;;6110629;23;20431;-83
2022/02/27 05:26:35;;;;;;;5.03;2.77;;;3.90;99.90;;;;;;6080996;23;20452;-81
2022/02/27 05:29:02;;;;;;;10.20;2.90;;;3.70;99.90;;;;;;6102898;23;20472;-79
2022/02/27 05:31:29;;;;;;;5.10;2.60;;;3.70;99.90;;;;;;6111063;23;20468;-81
2022/02/27 05:33:56;;;;;;;4.73;3.30;;;3.70;99.90;;;;;;6078472;23;20421;-83
2022/02/27 05:36:27;;;;;;;8.00;3.20;;;4.00;99.90;;;;;;6083556;23;20385;-82
2022/02/27 05:38:57;;;;;;;6.43;3.40;;;4.00;99.90;;;;;;6099902;23;20409;-81
2022/02/27 05:41:23;;;;;;;10.47;3.30;;;4.10;99.90;;;;;;6098468;23;20879;-83
2022/02/27 05:43:57;;;;;;;6.03;3.77;;;4.20;99.60;;;;;;6100458;23;20441;-83
2022/02/27 05:46:27;;;;;;;5.00;2.17;;;4.20;99.30;;;;;;6098624;23;20741;-83
2022/02/27 05:48:53;;;;;;;7.57;3.03;;;4.20;99.30;;;;;;6100295;23;20452;-83
2022/02/27 05:51:20;;;;;;;6.37;3.17;;;4.30;99.20;;;;;;6098183;23;20477;-83
2022/02/27 05:53:50;;;;;;;5.63;2.97;;;4.20;99.00;;;;;;6096513;23;20524;-84
2022/02/27 05:56:19;;;;;;;3.87;2.90;;;4.20;99.20;;;;;;6098474;23;20409;-83
2022/02/27 05:58:51;;;;;;;5.50;2.40;;;4.20;99.30;;;;;;6105743;23;20440;-82
2022/02/27 06:01:21;;;;;;;10.87;3.60;;;4.20;99.40;;;;;;6083258;23;20440;-83
2022/02/27 06:03:48;;;;;;;3.70;2.73;;;4.20;99.30;;;;;;6107115;23;21077;-83
2022/02/27 06:06:16;;;;;;;5.17;2.53;;;4.20;99.00;;;;;;6087420;23;20417;-82
2022/02/27 06:08:46;;;;;;;3.93;2.63;;;4.20;99.10;;;;;;6098863;23;20444;-83
2022/02/27 06:11:13;;;;;;;6.33;2.30;;;4.20;99.10;;;;;;6099631;23;20405;-80
2022/02/27 06:13:42;;;;;;;8.30;2.80;;;4.20;98.90;;;;;;6108140;23;20748;-83
2022/02/27 06:16:11;;;;;;;5.03;2.50;;;4.10;99.00;;;;;;6108832;23;20397;-79
2022/02/27 06:18:38;;;;;;;5.47;2.80;;;4.10;98.80;;;;;;6107388;23;20413;-82
2022/02/27 06:21:07;;;;;;;5.10;2.50;;;4.10;98.90;;;;;;6107211;23;20506;-80
2022/02/27 06:23:39;;;;;;;5.60;3.30;;;4.10;98.90;;;;;;6101422;23;20451;-83
2022/02/27 06:26:10;;;;;;;4.37;2.40;;;4.20;98.70;;;;;;6095690;23;21230;-84
2022/02/27 06:28:37;;;;;;;4.07;2.90;;;4.20;98.50;;;;;;6069575;23;20489;-83
2022/02/27 06:31:09;;;;;;;9.20;2.87;;;4.20;98.30;;;;;;6093728;23;20412;-83
2022/02/27 06:33:39;;;;;;;4.67;2.43;;;4.20;98.40;;;;;;6095922;23;20774;-82
2022/02/27 06:36:14;;;;;;;6.03;2.83;;;4.30;98.30;;;;;;6103325;23;20397;-82
2022/02/27 06:38:47;;;;;;;5.67;2.80;;;4.30;98.30;;;;;;6097648;23;20397;-84
2022/02/27 06:41:26;;;;;;;4.33;3.23;;;4.30;98.50;;;;;;6096316;23;20511;-81
2022/02/27 06:43:55;;;;;;;4.07;2.13;;;4.30;98.40;;;;;;6110112;23;20464;-83
2022/02/27 06:46:32;;;;;;;6.43;2.77;;;4.30;98.30;;;;;;6098375;23;20424;-83
2022/02/27 06:49:09;;;;;;;7.13;2.70;;;4.40;98.20;;;;;;6095620;23;20444;-83
2022/02/27 06:51:42;;;;;;;8.60;2.63;;;4.40;98.10;;;;;;6122333;23;20417;-83
2022/02/27 06:54:09;;;;;;;5.97;3.77;;;4.40;98.00;;;;;;6099424;23;20419;-82
2022/02/27 06:56:41;;;;;;;7.33;2.77;;;4.40;97.80;;;;;;6119050;23;20412;-84
2022/02/27 06:59:09;;;;;;;6.30;2.87;;;4.40;97.50;;;;;;6142652;23;20408;-83
2022/02/27 07:01:38;;;;;;;9.00;3.40;;;4.30;97.50;;;;;;6118532;23;20423;-83
2022/02/27 07:04:16;;;;;;;4.67;2.50;;;4.30;97.40;;;;;;6102276;23;20411;-80
2022/02/27 07:06:43;;;;;;;7.63;3.47;;;4.40;97.20;;;;;;6138364;23;20455;-84
2022/02/27 07:09:24;;;;;;;5.00;2.33;;;4.30;97.30;;;;;;6114059;23;20432;-82
2022/02/27 07:11:52;;;;;;;4.70;2.70;;;4.30;97.50;;;;;;6100303;23;20416;-78
2022/02/27 07:14:23;;;;;;;4.87;2.73;;;4.20;97.30;;;;;;6095960;23;20823;-81
2022/02/27 07:16:53;;;;;;;6.50;3.23;;;4.30;97.50;;;;;;6094226;23;20393;-83
2022/02/27 07:19:23;;;;;;;7.30;3.17;;;4.40;97.10;;;;;;6094124;23;20417;-82
2022/02/27 07:21:54;;;;;;;4.83;3.53;;;4.40;96.80;;;;;;6097545;23;20437;-82
2022/02/27 07:24:23;;;;;;;5.93;3.50;;;4.40;96.70;;;;;;6097559;23;20420;-82
2022/02/27 07:27:01;;;;;;;5.23;2.83;;;4.30;97.20;;;;;;6099663;23;20416;-82
2022/02/27 07:29:31;;;;;;;8.33;2.73;;;4.40;97.10;;;;;;6100640;23;20451;-82
2022/02/27 07:31:59;;;;;;;5.93;3.07;;;5.20;98.00;;;;;;6092823;23;21262;-82
2022/02/27 07:34:30;;;;;;;8.10;3.40;;;7.80;94.50;;;;;;6093282;23;20476;-82
2022/02/27 07:37:00;;;;;;;8.00;2.77;;;10.10;86.30;;;;;;6116772;23;20417;-83
2022/02/27 07:39:30;;;;;;;10.67;3.00;;;11.80;78.10;;;;;;6087830;23;20417;-82
2022/02/27 07:42:02;;;;;;;5.63;3.07;;;13.10;67.40;;;;;;6094669;23;20558;-82
2022/02/27 07:44:32;;;;;;;5.60;2.70;;;13.50;64.40;;;;;;6093541;23;20425;-82
2022/02/27 07:47:10;;;;;;;4.70;2.77;;;14.50;60.60;;;;;;6071947;23;20938;-83
2022/02/27 07:49:46;;;;;;;6.70;3.87;;;15.10;56.30;;;;;;6097970;23;20436;-83
2022/02/27 07:52:16;;;;;;;3.20;2.90;;;15.20;55.20;;;;;;6097714;23;20432;-83
2022/02/27 07:54:45;;;;;;;4.57;3.13;;;14.70;54.40;;;;;;6112741;23;20412;-80
2022/02/27 07:57:15;;;;;;;6.73;3.13;;;12.50;56.30;;;;;;6088013;23;20404;-83
2022/02/27 07:59:44;;;;;;;5.20;3.07;;;10.90;60.80;;;;;;6098465;23;20452;-83
2022/02/27 08:02:19;;;;;;;4.37;3.00;;;10.30;65.40;;;;;;6074548;23;20800;-82
2022/02/27 08:04:59;;;;;;;4.60;3.20;;;9.90;69.70;;;;;;6095846;23;20682;-82
2022/02/27 08:07:34;;;;;;;5.90;3.33;;;9.80;71.30;;;;;;6070905;23;20424;-81
2022/02/27 08:10:05;;;;;;;5.00;4.10;;;9.80;71.90;;;;;;6096733;23;20439;-83
2022/02/27 08:12:45;;;;;;;4.60;4.20;;;9.60;72.90;;;;;;6072177;23;20519;-82
2022/02/27 08:15:24;;;;;;;5.67;3.50;;;9.70;74.30;;;;;;6074591;23;20488;-82
2022/02/27 08:18:07;;;;;;;11.13;3.97;;;9.50;74.40;;;;;;6054404;23;20508;-82
2022/02/27 08:20:36;;;;;;;5.73;3.50;;;8.30;75.70;;;;;;6099009;23;20393;-83
2022/02/27 08:23:22;;;;;;;9.47;4.20;;;7.40;79.30;;;;;;6099913;23;20491;-84
2022/02/27 08:25:55;;;;;;;6.60;3.80;;;6.70;83.90;;;;;;6094052;23;20500;-82
2022/02/27 08:28:29;;;;;;;7.10;3.33;;;6.10;88.70;;;;;;6096671;23;20472;-84
2022/02/27 08:31:03;;;;;;;5.57;3.30;;;6.20;90.40;;;;;;6071951;23;20488;-82
2022/02/27 08:33:38;;;;;;;4.43;3.40;;;6.10;91.00;;;;;;6095037;23;20499;-82
2022/02/27 08:36:42;;;;;;;5.53;3.40;;;6.20;91.10;;;;;;6089995;23;20411;-82
2022/02/27 08:39:13;;;;;;;5.67;3.07;;;6.20;91.30;;;;;;6091107;23;20425;-81
2022/02/27 08:41:40;;;;;;;7.13;3.37;;;6.20;91.30;;;;;;6068576;23;20487;-83
2022/02/27 08:44:10;;;;;;;6.70;3.60;;;6.00;91.80;;;;;;6084077;23;20416;-83
2022/02/27 08:46:43;;;;;;;8.07;3.80;;;6.10;92.40;;;;;;6094886;23;20416;-82
2022/02/27 08:49:12;;;;;;;5.17;3.20;;;5.90;92.60;;;;;;6092507;23;20947;-82
2022/02/27 08:51:45;;;;;;;5.83;3.43;;;5.80;92.80;;;;;;6093009;23;20424;-84
2022/02/27 08:54:12;;;;;;;6.50;3.47;;;5.80;92.80;;;;;;6097235;23;20448;-81
2022/02/27 08:56:42;;;;;;;5.40;2.43;;;6.10;92.70;;;;;;6094361;23;20401;-81
2022/02/27 08:59:09;;;;;;;5.20;3.20;;;6.60;92.20;;;;;;6095160;23;20504;-81
2022/02/27 09:01:38;;;;;;;7.13;3.23;;;6.60;91.60;;;;;;6094970;23;20503;-83
2022/02/27 09:04:09;;;;;;;8.80;3.67;;;6.50;91.30;;;;;;6095048;23;20412;-83
2022/02/27 09:06:41;;;;;;;7.47;4.30;;;6.30;91.70;;;;;;6099687;23;20911;-83
2022/02/27 09:09:09;;;;;;;8.97;3.20;;;6.20;92.00;;;;;;6094109;23;20417;-83
2022/02/27 09:11:41;;;;;;;6.10;3.00;;;6.30;92.20;;;;;;6097629;23;21018;-81
2022/02/27 09:14:26;;;;;;;4.20;2.50;;;6.60;91.90;;;;;;6098003;23;20397;-83
2022/02/27 09:17:09;;;;;;;4.40;2.50;;;6.70;91.20;;;;;;6098195;23;20495;-82
2022/02/27 09:19:36;;;;;;;5.03;3.47;;;6.90;91.00;;;;;;6096284;23;20401;-82
2022/02/27 09:22:08;;;;;;;7.50;3.43;;;7.00;91.30;;;;;;6094749;23;20438;-81
2022/02/27 09:24:44;;;;;;;4.30;2.70;;;7.10;91.40;;;;;;6097940;23;21306;-82
2022/02/27 09:27:17;;;;;;;6.30;2.90;;;7.20;91.00;;;;;;6096892;23;21260;-82
2022/02/27 09:30:03;;;;;;;2.40;2.20;;;7.20;90.90;;;;;;6095302;23;20476;-83
2022/02/27 09:32:30;;;;;;;5.67;3.27;;;7.20;90.60;;;;;;6095898;23;20429;-78
2022/02/27 09:35:02;;;;;;;5.33;3.53;;;7.40;90.50;;;;;;6098599;23;20405;-83
2022/02/27 09:37:40;;;;;;;5.67;3.03;;;7.30;89.90;;;;;;6098429;23;20393;-82
2022/02/27 09:40:17;;;;;;;4.33;3.60;;;7.10;90.60;;;;;;6095656;23;20435;-81
2022/02/27 09:42:50;;;;;;;4.23;3.00;;;7.40;90.50;;;;;;6118544;23;20432;-84
2022/02/27 09:45:21;;;;;;;5.23;2.70;;;7.70;90.20;;;;;;6100659;23;20416;-82
2022/02/27 09:47:55;;;;;;;8.90;4.10;;;7.60;87.90;;;;;;6084653;23;20416;-86
2022/02/27 09:50:29;;;;;;;4.00;2.67;;;7.60;87.90;;;;;;6069900;23;20444;-89
2022/02/27 09:52:57;;;;;;;2.57;2.13;;;7.60;89.20;;;;;;6115315;23;20448;-84
2022/02/27 09:55:47;;;;;;;3.50;2.97;;;7.80;87.60;;;;;;6087581;23;20773;-86
2022/02/27 09:58:22;;;;;;;4.63;2.37;;;7.70;86.30;;;;;;6111974;23;20493;-85
2022/02/27 10:01:21;;;;;;;3.10;2.17;;;7.80;86.30;;;;;;6098134;23;20393;-86
2022/02/27 10:04:24;;;;;;;4.60;2.77;;;8.80;83.90;;;;;;6119012;23;20397;-85
2022/02/27 10:07:20;;;;;;;3.83;2.57;;;10.50;76.40;;;;;;6068346;23;20399;-86
2022/02/27 10:10:09;;;;;;;6.37;2.00;;;11.30;69.40;;;;;;6087394;23;20631;-85
2022/02/27 10:12:42;;;;;;;2.80;2.37;;;12.10;66.70;;;;;;6109367;23;20488;-84
2022/02/27 10:15:15;;;;;;;3.03;1.97;;;12.20;63.20;;;;;;6091576;23;20476;-84
2022/02/27 10:17:59;;;;;;;3.80;2.43;;;12.70;60.00;;;;;;6118589;23;20420;-86
2022/02/27 10:20:41;;;;;;;3.90;1.93;;;11.40;61.00;;;;;;6115756;23;20412;-87
2022/02/27 10:23:25;;;;;;;3.30;2.63;;;10.50;64.30;;;;;;6088227;23;20397;-86
2022/02/27 10:26:22;;;;;;;3.03;1.73;;;9.90;68.10;;;;;;6111113;23;20421;-87
2022/02/27 10:29:18;;;;;;;5.20;2.93;;;9.60;69.60;;;;;;6086803;23;20460;-87
2022/02/27 10:31:53;;;;;;;3.77;2.63;;;9.60;70.40;;;;;;6086679;23;20680;-85
2022/02/27 10:34:33;;;;;;;5.30;2.50;;;9.60;71.10;;;;;;6110351;23;20421;-86
2022/02/27 10:37:07;;;;;;;5.10;2.87;;;9.90;71.60;;;;;;6110187;23;20404;-84
2022/02/27 10:39:50;;;;;;;4.63;2.57;;;10.00;70.20;;;;;;6083392;23;20415;-86
2022/02/27 10:42:30;;;;;;;3.60;2.70;;;9.60;70.00;;;;;;6080584;23;20440;-85
2022/02/27 10:45:08;;;;;;;3.27;2.97;;;9.50;70.00;;;;;;6096276;23;20437;-84
2022/02/27 10:47:48;;;;;;;6.80;2.60;;;9.30;71.80;;;;;;6102338;23;20409;-84
2022/02/27 10:50:19;;;;;;;6.50;3.10;;;9.70;72.10;;;;;;6097248;23;20441;-85
2022/02/27 10:52:50;;;;;;;2.10;1.90;;;9.90;71.60;;;;;;6100006;23;20482;-84
2022/02/27 10:55:18;;;;;;;3.80;2.20;;;9.70;68.10;;;;;;6101525;23;20472;-84
2022/02/27 10:57:50;;;;;;;4.43;2.50;;;9.50;68.00;;;;;;6125074;23;20443;-85
2022/02/27 11:00:26;;;;;;;2.70;1.93;;;9.30;68.80;;;;;;6103880;23;20424;-82
2022/02/27 11:03:07;;;;;;;6.23;2.73;;;9.60;69.00;;;;;;6100346;23;20442;-84
2022/02/27 11:05:49;;;;;;;3.00;2.80;;;9.60;70.40;;;;;;6100116;23;20444;-86
2022/02/27 11:08:41;;;;;;;5.17;3.10;;;9.70;68.40;;;;;;6102850;23;20956;-87
2022/02/27 11:11:21;;;;;;;3.00;2.63;;;9.40;68.30;;;;;;6107912;23;20444;-87
2022/02/27 11:13:51;;;;;;;8.90;2.50;;;9.60;68.00;;;;;;6109662;23;20444;-84
2022/02/27 11:16:27;;;;;;;3.70;2.80;;;9.70;66.70;;;;;;6109886;23;20448;-85
2022/02/27 11:19:04;;;;;;;3.53;2.60;;;9.40;66.30;;;;;;6108923;23;20411;-83
2022/02/27 11:21:50;;;;;;;3.13;2.63;;;9.50;66.30;;;;;;6107845;23;20420;-87
2022/02/27 11:24:27;;;;;;;3.93;2.23;;;9.60;66.70;;;;;;6112232;23;20404;-86
2022/02/27 11:27:17;;;;;;;7.47;2.53;;;10.00;64.80;;;;;;6115932;23;20480;-87
2022/02/27 11:29:59;;;;;;;3.97;2.67;;;9.70;66.10;;;;;;6105524;23;20448;-86
2022/02/27 11:32:57;;;;;;;1.73;1.33;;;9.60;66.50;;;;;;6105839;23;20436;-84
2022/02/27 11:35:49;;;;;;;3.20;2.50;;;9.60;67.20;;;;;;6108922;23;20413;-87
2022/02/27 11:38:28;;;;;;;5.30;2.73;;;9.80;68.00;;;;;;6107887;23;20420;-85
2022/02/27 11:41:00;;;;;;;7.20;3.30;;;10.00;66.40;;;;;;6109948;23;20444;-85
2022/02/27 11:43:55;;;;;;;2.20;2.00;;;10.10;66.50;;;;;;6104016;23;20437;-84
2022/02/27 11:46:36;;;;;;;2.70;2.30;;;9.80;66.70;;;;;;6088630;23;20428;-85
2022/02/27 11:49:09;;;;;;;4.40;3.40;;;10.00;65.10;;;;;;6089486;23;20420;-84
2022/02/27 11:51:36;;;;;;;6.23;2.70;;;10.00;63.50;;;;;;6088210;23;20448;-85
2022/02/27 11:54:18;;;;;;;6.77;2.90;;;9.80;65.30;;;;;;6106282;23;20440;-85
2022/02/27 11:57:03;;;;;;;3.60;2.27;;;9.90;66.10;;;;;;6084680;23;20440;-85
2022/02/27 11:59:59;;;;;;;2.87;2.53;;;10.00;64.00;;;;;;6111424;23;20439;-85
2022/02/27 12:02:48;;;;;;;2.80;1.97;;;10.00;63.10;;;;;;6105596;23;20437;-83
2022/02/27 12:05:54;;;;;;;3.83;2.50;;;9.80;65.50;;;;;;6086804;23;20504;-84
2022/02/27 12:08:56;;;;;;;10.20;3.10;;;9.70;66.20;;;;;;6082701;23;20432;-86
2022/02/27 12:11:30;;;;;;;3.40;2.63;;;9.90;66.60;;;;;;6107520;23;20500;-84
2022/02/27 12:14:12;;;;;;;3.93;2.67;;;9.90;65.60;;;;;;6105913;23;20416;-83
2022/02/27 12:16:59;;;;;;;5.20;3.17;;;9.90;66.40;;;;;;6085164;23;20419;-87
2022/02/27 12:19:35;;;;;;;5.20;2.77;;;10.00;66.30;;;;;;6107556;23;20423;-86
2022/02/27 12:22:09;;;;;;;4.40;2.10;;;10.10;65.70;;;;;;6109421;23;20903;-85
2022/02/27 12:25:07;;;;;;;3.03;2.80;;;10.30;64.90;;;;;;6111628;23;20416;-84
2022/02/27 12:30:58;;;;;;;3.30;2.10;;;10.30;64.60;;;;;;6111737;23;20449;-87
2022/02/27 12:33:35;;;;;;;3.93;2.90;;;10.40;64.90;;;;;;6089779;23;20432;-84
2022/02/27 12:36:15;;;;;;;5.40;2.20;;;10.20;65.40;;;;;;6085110;23;20431;-86
2022/02/27 12:38:42;;;;;;;3.60;3.20;;;10.10;65.40;;;;;;6085504;23;20688;-82
2022/02/27 12:41:19;;;;;;;2.67;2.13;;;10.30;65.10;;;;;;6086830;23;20393;-85
2022/02/27 12:43:56;;;;;;;4.17;3.47;;;10.40;64.00;;;;;;6088784;23;20497;-85
2022/02/27 12:46:33;;;;;;;4.03;2.80;;;10.40;64.20;;;;;;6110632;23;20428;-83
2022/02/27 12:52:43;;;;;;;3.50;2.90;;;10.50;64.30;;;;;;6112970;23;20435;-83
2022/02/27 12:58:15;;;;;;;4.07;2.90;;;10.80;63.80;;;;;;6113909;23;20424;-85
2022/02/27 13:01:09;;;;;;;3.73;2.90;;;10.80;63.50;;;;;;6125974;23;20416;-87
2022/02/27 13:03:59;;;;;;;4.50;3.50;;;10.70;64.20;;;;;;6121153;23;20438;-86
2022/02/27 13:07:17;;;;;;;3.33;2.87;;;10.90;64.60;;;;;;6145604;23;20414;-84
2022/02/27 13:13:47;;;;;;;;;;;;;;;;;;;;;
2022/02/27 13:16:30;;;;;;;2.80;2.37;;;11.20;61.80;;;;;;6059740;23;20404;-88
2022/02/27 13:19:10;;;;;;;7.27;2.83;;;11.10;61.60;;;;;;6115585;23;20400;-87
2022/02/27 13:21:55;;;;;;;4.27;3.27;;;11.20;62.10;;;;;;6116866;23;20417;-87
2022/02/27 13:24:39;;;;;;;3.43;3.13;;;11.50;60.40;;;;;;6094411;23;20412;-87
2022/02/27 13:28:05;;;;;;;;;;;;;;;;;;;;;
2022/02/27 13:30:56;;;;;;;6.73;3.50;;;12.20;59.40;;;;;;6100397;23;20436;-85
2022/02/27 13:33:52;;;;;;;4.50;2.87;;;12.30;57.20;;;;;;6083670;23;20527;-85
2022/02/27 13:36:29;;;;;;;2.80;2.50;;;11.70;57.90;;;;;;6092814;23;20725;-86
2022/02/27 13:39:14;;;;;;;3.20;2.90;;;12.30;57.70;;;;;;6093748;23;20460;-84
2022/02/27 13:41:48;;;;;;;3.03;2.70;;;12.80;56.90;;;;;;6114035;23;20412;-86
2022/02/27 13:44:44;;;;;;;3.63;2.87;;;13.40;55.10;;;;;;6115383;23;20412;-85
2022/02/27 13:47:27;;;;;;;3.77;2.70;;;12.90;53.70;;;;;;6115771;23;20428;-83
2022/02/27 13:50:17;;;;;;;4.83;2.83;;;12.70;54.20;;;;;;6113929;23;20423;-84
2022/02/27 13:53:05;;;;;;;2.53;2.20;;;12.40;54.60;;;;;;6112203;23;20435;-85